Time;durP1;ratioP1;P1;durP2;ratioP2;P2;SDS_P1;SDS_P2;PMS_P1;PMS_P2;Temp;Humidity;BMP_temperature;BMP_pressure;BME280_temperature;BME280_humidity;BME280_pressure;Samples;Min_cycle;Max_cycle;Signal;HPM_P1;HPM_P2
2022/08/30 00:01:55;;;;;;;1802.30;966.13;;;14.20;99.90;;;;;;4164380;28;20278;-71
2022/08/30 00:03:57;;;;;;;1150.33;987.73;;;14.20;99.90;;;;;;4162084;28;20204;-71
2022/08/30 00:05:57;;;;;;;955.67;847.03;;;14.10;99.90;;;;;;4164032;28;20212;-71
2022/08/30 00:07:58;;;;;;;1729.37;943.80;;;14.10;99.90;;;;;;4164009;28;20307;-71
2022/08/30 00:09:59;;;;;;;1032.67;899.17;;;14.10;99.90;;;;;;4163937;28;20226;-72
2022/08/30 00:12:00;;;;;;;1999.90;999.90;;;14.10;99.90;;;;;;4163631;28;20304;-71
2022/08/30 00:14:00;;;;;;;1819.63;851.67;;;14.00;99.90;;;;;;4163132;28;20648;-71
2022/08/30 00:16:01;;;;;;;1368.63;947.70;;;14.00;99.90;;;;;;4163574;28;20208;-71
2022/08/30 00:18:02;;;;;;;977.97;885.37;;;13.90;99.90;;;;;;4163749;28;20648;-71
2022/08/30 00:20:07;;;;;;;961.70;874.97;;;13.90;99.90;;;;;;4163766;28;20185;-71
2022/08/30 00:22:08;;;;;;;1231.33;870.27;;;13.80;99.90;;;;;;4163824;28;20331;-71
2022/08/30 00:24:09;;;;;;;898.33;820.27;;;13.80;99.90;;;;;;4163154;28;20185;-71
2022/08/30 00:26:10;;;;;;;1719.40;964.20;;;13.80;99.90;;;;;;4163671;28;20201;-71
2022/08/30 00:28:11;;;;;;;1999.90;999.90;;;13.80;99.90;;;;;;4164801;28;20199;-71
2022/08/30 00:30:13;;;;;;;1586.13;865.03;;;13.80;99.90;;;;;;4164830;28;20189;-70
2022/08/30 00:32:15;;;;;;;1999.90;999.90;;;13.80;99.90;;;;;;4164562;28;20307;-70
2022/08/30 00:34:15;;;;;;;1556.37;842.90;;;13.80;99.90;;;;;;4164856;28;20650;-70
2022/08/30 00:36:16;;;;;;;1999.90;954.43;;;13.80;99.90;;;;;;4165320;28;20259;-70
2022/08/30 00:38:17;;;;;;;1885.27;999.90;;;13.80;99.90;;;;;;4164094;28;20184;-70
2022/08/30 00:40:19;;;;;;;1564.07;859.93;;;13.80;99.90;;;;;;4163639;28;20731;-70
2022/08/30 00:42:20;;;;;;;1759.77;817.90;;;13.80;99.90;;;;;;4163462;28;20185;-70
2022/08/30 00:44:20;;;;;;;1999.90;984.17;;;13.90;99.90;;;;;;4162678;28;20181;-70
2022/08/30 00:46:21;;;;;;;1694.10;963.23;;;13.80;99.90;;;;;;4163161;28;20755;-70
2022/08/30 00:48:22;;;;;;;940.40;854.60;;;13.80;99.90;;;;;;4176271;28;20180;-70
2022/08/30 00:50:27;;;;;;;1586.07;921.20;;;13.90;99.90;;;;;;4179934;28;20207;-70
2022/08/30 00:52:28;;;;;;;1999.90;914.57;;;13.80;99.90;;;;;;4179785;28;20204;-70
2022/08/30 00:54:30;;;;;;;1946.97;931.73;;;13.80;99.90;;;;;;4178095;28;20192;-70
2022/08/30 00:56:32;;;;;;;844.57;770.97;;;13.80;99.90;;;;;;4180930;28;20180;-70
2022/08/30 00:58:36;;;;;;;869.70;752.50;;;13.80;99.90;;;;;;4188638;28;20244;-71
2022/08/30 01:00:36;;;;;;;1005.07;837.87;;;13.80;99.90;;;;;;4188591;28;20259;-70
2022/08/30 01:02:37;;;;;;;936.03;848.03;;;13.80;99.90;;;;;;4188379;28;20233;-72
2022/08/30 01:04:43;;;;;;;1336.73;874.73;;;13.70;99.90;;;;;;4187690;28;20248;-71
2022/08/30 01:06:43;;;;;;;975.37;870.57;;;13.70;99.90;;;;;;4186209;28;20184;-71
2022/08/30 01:08:45;;;;;;;1999.90;999.90;;;13.60;99.90;;;;;;4184207;28;20196;-70
2022/08/30 01:10:46;;;;;;;1641.73;959.60;;;13.60;99.90;;;;;;4179800;28;20215;-70
2022/08/30 01:12:47;;;;;;;1963.30;897.60;;;13.60;99.90;;;;;;4178663;28;20260;-70
2022/08/30 01:14:49;;;;;;;1554.30;884.30;;;13.50;99.90;;;;;;4179261;28;20219;-70
2022/08/30 01:16:49;;;;;;;1558.23;863.57;;;13.50;99.90;;;;;;4179384;28;20207;-70
2022/08/30 01:18:53;;;;;;;1052.30;848.03;;;13.50;99.90;;;;;;4179231;28;20702;-70
2022/08/30 01:21:01;;;;;;;869.97;743.20;;;13.40;99.90;;;;;;4179416;28;20184;-71
2022/08/30 01:23:07;;;;;;;874.27;786.23;;;13.40;99.90;;;;;;4178740;28;20266;-70
2022/08/30 01:25:09;;;;;;;1967.57;990.73;;;13.40;99.90;;;;;;4179339;28;20212;-70
2022/08/30 01:27:09;;;;;;;907.40;823.83;;;13.40;99.90;;;;;;4177451;28;20212;-70
2022/08/30 01:29:16;;;;;;;1999.90;999.90;;;13.40;99.90;;;;;;4162777;28;20698;-70
2022/08/30 01:31:17;;;;;;;1941.07;999.90;;;13.40;99.90;;;;;;4162446;28;20295;-70
2022/08/30 01:33:18;;;;;;;916.00;833.47;;;13.30;99.90;;;;;;4162104;28;20227;-70
2022/08/30 01:35:19;;;;;;;818.60;750.20;;;13.40;99.90;;;;;;4162333;28;20184;-70
2022/08/30 01:37:29;;;;;;;983.80;748.30;;;13.30;99.90;;;;;;4162670;28;20957;-70
2022/08/30 01:39:30;;;;;;;830.73;744.67;;;13.30;99.90;;;;;;4162835;28;20189;-70
2022/08/30 01:41:33;;;;;;;1236.10;988.53;;;13.30;99.90;;;;;;4162702;28;20181;-70
2022/08/30 01:43:34;;;;;;;881.23;801.13;;;13.30;99.90;;;;;;4162090;28;20185;-70
2022/08/30 01:45:34;;;;;;;1999.90;935.30;;;13.30;99.90;;;;;;4162167;28;20710;-70
2022/08/30 01:47:35;;;;;;;1999.90;996.77;;;13.30;99.90;;;;;;4162073;28;20213;-70
2022/08/30 01:49:36;;;;;;;1999.90;999.20;;;13.30;99.90;;;;;;4162394;28;20185;-70
2022/08/30 01:51:38;;;;;;;1573.33;968.63;;;13.20;99.90;;;;;;4162268;28;20204;-70
2022/08/30 01:53:39;;;;;;;1755.60;906.63;;;13.20;99.90;;;;;;4161765;28;20193;-70
2022/08/30 01:55:41;;;;;;;1747.07;928.33;;;13.30;99.90;;;;;;4162326;28;20204;-70
2022/08/30 01:57:41;;;;;;;1009.03;829.80;;;13.30;99.90;;;;;;4162074;28;20185;-70
2022/08/30 01:59:46;;;;;;;1801.43;853.03;;;13.20;99.90;;;;;;4162261;28;20584;-70
2022/08/30 02:01:46;;;;;;;1082.23;803.20;;;13.20;99.90;;;;;;4162127;28;20636;-70
2022/08/30 02:03:47;;;;;;;1132.07;839.53;;;13.20;99.90;;;;;;4161507;28;20177;-70
2022/08/30 02:05:49;;;;;;;1015.07;913.40;;;13.20;99.90;;;;;;4161957;28;20195;-70
2022/08/30 02:07:49;;;;;;;1028.60;801.97;;;13.20;99.90;;;;;;4162059;28;20695;-70
2022/08/30 02:09:51;;;;;;;1044.50;858.23;;;13.30;99.90;;;;;;4162205;28;20185;-70
2022/08/30 02:11:52;;;;;;;1727.67;920.50;;;13.20;99.90;;;;;;4161974;28;20208;-70
2022/08/30 02:13:52;;;;;;;1089.40;852.67;;;13.20;99.90;;;;;;4161371;28;20200;-70
2022/08/30 02:15:54;;;;;;;819.33;749.63;;;13.20;99.90;;;;;;4160949;28;20208;-70
2022/08/30 02:17:54;;;;;;;853.90;768.63;;;13.20;99.90;;;;;;4162245;28;20196;-70
2022/08/30 02:19:55;;;;;;;1019.97;830.30;;;13.20;99.90;;;;;;4161970;28;20173;-70
2022/08/30 02:21:56;;;;;;;1530.50;940.07;;;13.10;99.90;;;;;;4162252;28;20748;-70
2022/08/30 02:23:56;;;;;;;1999.90;996.73;;;13.10;99.90;;;;;;4161441;28;20177;-70
2022/08/30 02:25:58;;;;;;;1999.90;997.87;;;13.10;99.90;;;;;;4161988;28;20207;-70
2022/08/30 02:27:58;;;;;;;1395.10;923.93;;;13.00;99.90;;;;;;4161872;28;20189;-69
2022/08/30 02:29:59;;;;;;;1999.90;991.47;;;13.00;99.90;;;;;;4161851;28;20182;-70
2022/08/30 02:32:14;;;;;;;1636.23;879.00;;;13.00;99.90;;;;;;4161586;28;20228;-70
2022/08/30 02:34:16;;;;;;;1894.23;995.10;;;13.00;99.90;;;;;;4173988;28;20223;-70
2022/08/30 02:36:19;;;;;;;1829.97;892.40;;;12.90;99.90;;;;;;4178081;28;20303;-70
2022/08/30 02:38:20;;;;;;;1692.47;930.53;;;12.90;99.90;;;;;;4178204;28;20174;-70
2022/08/30 02:40:21;;;;;;;915.60;817.87;;;12.90;99.90;;;;;;4178277;28;20198;-71
2022/08/30 02:42:21;;;;;;;1751.53;974.13;;;12.90;99.90;;;;;;4177098;28;20181;-70
2022/08/30 02:44:22;;;;;;;1798.70;905.77;;;12.90;99.90;;;;;;4177358;28;20212;-70
2022/08/30 02:46:23;;;;;;;1322.20;910.40;;;12.90;99.90;;;;;;4178332;28;20208;-70
2022/08/30 02:48:24;;;;;;;1102.37;892.40;;;12.90;99.90;;;;;;4178214;28;20245;-69
2022/08/30 02:50:24;;;;;;;1999.90;999.90;;;12.90;99.90;;;;;;4176643;28;20188;-69
2022/08/30 02:52:25;;;;;;;1770.70;932.17;;;12.90;99.90;;;;;;4178120;28;20311;-70
2022/08/30 02:54:27;;;;;;;1470.30;999.90;;;12.80;99.90;;;;;;4177678;28;20552;-70
2022/08/30 02:56:27;;;;;;;1308.23;922.67;;;12.80;99.90;;;;;;4178562;28;20231;-70
2022/08/30 02:58:28;;;;;;;859.83;780.20;;;12.70;99.90;;;;;;4178224;28;20173;-70
2022/08/30 03:00:29;;;;;;;1942.87;984.43;;;12.70;99.90;;;;;;4178031;28;20180;-70
2022/08/30 03:02:30;;;;;;;1999.90;999.90;;;12.70;99.90;;;;;;4177881;28;20176;-70
2022/08/30 03:04:30;;;;;;;1207.10;762.70;;;12.70;99.90;;;;;;4177490;28;20229;-73
2022/08/30 03:06:31;;;;;;;1547.27;947.70;;;12.70;99.90;;;;;;4178320;28;20187;-70
2022/08/30 03:08:33;;;;;;;1927.30;868.70;;;12.70;99.90;;;;;;4178144;28;20549;-70
2022/08/30 03:10:34;;;;;;;899.57;817.63;;;12.70;99.90;;;;;;4176868;28;20211;-70
2022/08/30 03:12:35;;;;;;;1046.73;845.10;;;12.70;99.90;;;;;;4177931;28;20265;-70
2022/08/30 03:14:37;;;;;;;1999.90;906.13;;;12.70;99.90;;;;;;4177217;28;20188;-70
2022/08/30 03:16:38;;;;;;;1418.93;999.90;;;12.80;99.90;;;;;;4178144;28;20176;-70
2022/08/30 03:18:40;;;;;;;1999.90;999.90;;;12.80;99.90;;;;;;4179530;28;20675;-71
2022/08/30 03:20:41;;;;;;;1398.10;962.00;;;12.80;99.90;;;;;;4181035;28;20177;-70
2022/08/30 03:22:41;;;;;;;1514.17;791.40;;;12.80;99.90;;;;;;4181101;28;20187;-70
2022/08/30 03:24:42;;;;;;;1544.03;864.03;;;12.80;99.90;;;;;;4167771;28;20181;-70
2022/08/30 03:26:42;;;;;;;875.20;792.43;;;12.80;99.90;;;;;;4164837;28;20220;-70
2022/08/30 03:28:43;;;;;;;1565.17;732.93;;;12.80;99.90;;;;;;4164507;28;20690;-70
2022/08/30 03:30:44;;;;;;;944.43;794.93;;;12.70;99.90;;;;;;4164502;28;20195;-71
2022/08/30 03:32:45;;;;;;;959.83;866.63;;;12.70;99.90;;;;;;4164346;28;20213;-69
2022/08/30 03:34:45;;;;;;;1596.43;950.93;;;12.60;99.90;;;;;;4164250;28;20675;-70
2022/08/30 03:36:47;;;;;;;905.40;811.23;;;12.70;99.90;;;;;;4164574;28;20259;-69
2022/08/30 03:38:48;;;;;;;1001.47;759.43;;;12.60;99.90;;;;;;4164768;28;20319;-70
2022/08/30 03:40:48;;;;;;;1573.07;921.07;;;12.60;99.90;;;;;;4164395;28;20280;-70
2022/08/30 03:42:49;;;;;;;1842.70;890.40;;;12.60;99.90;;;;;;4163504;28;20208;-70
2022/08/30 03:44:49;;;;;;;1025.93;894.23;;;12.60;99.90;;;;;;4163883;28;20812;-70
2022/08/30 03:46:50;;;;;;;1213.60;775.23;;;12.60;99.90;;;;;;4164117;28;20185;-70
2022/08/30 03:48:51;;;;;;;854.17;782.07;;;12.70;99.90;;;;;;4164136;28;20231;-70
2022/08/30 03:50:52;;;;;;;983.30;886.33;;;12.70;99.90;;;;;;4164013;28;20686;-70
2022/08/30 03:52:52;;;;;;;971.43;826.17;;;12.60;99.90;;;;;;4163332;28;20183;-70
2022/08/30 03:54:53;;;;;;;1302.33;952.90;;;12.60;99.90;;;;;;4164070;28;20304;-69
2022/08/30 03:56:53;;;;;;;960.70;866.97;;;12.60;99.90;;;;;;4163989;28;20173;-70
2022/08/30 03:58:54;;;;;;;1094.47;900.90;;;12.60;99.90;;;;;;4163917;28;20184;-70
2022/08/30 04:00:55;;;;;;;821.63;737.00;;;12.60;99.90;;;;;;4164137;28;20184;-70
2022/08/30 04:02:55;;;;;;;1128.37;835.73;;;12.60;99.90;;;;;;4163140;28;20185;-70
2022/08/30 04:04:56;;;;;;;1225.17;907.30;;;12.60;99.90;;;;;;4163893;28;20197;-70
2022/08/30 04:06:56;;;;;;;1201.37;903.40;;;12.60;99.90;;;;;;4163947;28;20184;-70
2022/08/30 04:08:57;;;;;;;1331.40;884.57;;;12.50;99.90;;;;;;4163856;28;20169;-69
2022/08/30 04:10:58;;;;;;;1828.93;999.90;;;12.40;99.90;;;;;;4163656;28;20180;-70
2022/08/30 04:12:58;;;;;;;1351.13;990.30;;;12.40;99.90;;;;;;4162933;28;20898;-70
2022/08/30 04:14:59;;;;;;;1373.53;901.63;;;12.40;99.90;;;;;;4163858;28;20200;-69
2022/08/30 04:16:59;;;;;;;1244.67;821.47;;;12.40;99.90;;;;;;4163635;28;20205;-71
2022/08/30 04:19:00;;;;;;;1951.53;933.47;;;12.30;99.90;;;;;;4163593;28;20184;-70
2022/08/30 04:21:01;;;;;;;878.93;801.97;;;12.30;99.90;;;;;;4163466;28;20184;-70
2022/08/30 04:23:05;;;;;;;1419.57;915.80;;;12.40;99.90;;;;;;4162765;28;20184;-70
2022/08/30 04:25:07;;;;;;;967.97;848.30;;;12.30;99.90;;;;;;4163677;28;20200;-70
2022/08/30 04:27:08;;;;;;;802.20;721.23;;;12.30;99.90;;;;;;4163280;28;20559;-70
2022/08/30 04:29:11;;;;;;;1658.97;932.10;;;12.30;99.90;;;;;;4163097;28;20177;-70
2022/08/30 04:31:14;;;;;;;844.23;777.23;;;12.30;99.90;;;;;;4163082;28;20219;-71
2022/08/30 04:33:15;;;;;;;1278.80;842.90;;;12.30;99.90;;;;;;4162534;28;20181;-70
2022/08/30 04:35:16;;;;;;;1604.10;879.40;;;12.30;99.90;;;;;;4161811;28;20276;-70
2022/08/30 04:37:17;;;;;;;1608.63;886.00;;;12.30;99.90;;;;;;4163162;28;20264;-70
2022/08/30 04:39:18;;;;;;;956.20;865.67;;;12.40;99.90;;;;;;4162924;28;20181;-70
2022/08/30 04:41:21;;;;;;;1501.90;937.73;;;12.50;99.90;;;;;;4166542;28;20212;-70
2022/08/30 04:43:25;;;;;;;1116.17;842.60;;;12.50;99.90;;;;;;4161944;28;20189;-70
2022/08/30 04:45:25;;;;;;;955.40;850.23;;;12.50;99.90;;;;;;4171459;28;20217;-70
2022/08/30 04:47:26;;;;;;;933.93;831.00;;;12.50;99.90;;;;;;4179372;28;20191;-70
2022/08/30 04:49:26;;;;;;;958.50;868.37;;;12.50;99.90;;;;;;4162894;28;20181;-71
2022/08/30 04:51:27;;;;;;;1098.97;858.23;;;12.50;99.90;;;;;;4162835;28;20205;-70
2022/08/30 04:53:28;;;;;;;945.97;853.77;;;12.50;99.90;;;;;;4162389;28;20180;-70
2022/08/30 04:55:28;;;;;;;1521.13;973.63;;;12.50;99.90;;;;;;4163090;28;20533;-70
2022/08/30 04:57:29;;;;;;;948.77;855.17;;;12.50;99.90;;;;;;4162670;28;20863;-71
2022/08/30 04:59:29;;;;;;;1405.23;885.23;;;12.50;99.90;;;;;;4162643;28;20177;-71
2022/08/30 05:01:31;;;;;;;1055.47;857.40;;;12.50;99.90;;;;;;4162740;28;20786;-70
2022/08/30 05:03:32;;;;;;;994.80;842.17;;;12.50;99.90;;;;;;4162005;28;20182;-71
2022/08/30 05:05:38;;;;;;;981.70;875.80;;;12.50;99.90;;;;;;4162928;28;20570;-70
2022/08/30 05:07:39;;;;;;;1411.40;822.53;;;12.60;99.90;;;;;;4162695;28;20618;-70
2022/08/30 05:09:39;;;;;;;1763.23;824.50;;;12.70;99.90;;;;;;4162677;28;20180;-71
2022/08/30 05:11:42;;;;;;;845.27;764.87;;;12.60;99.90;;;;;;4160886;28;20205;-70
2022/08/30 05:13:43;;;;;;;1295.40;920.40;;;12.60;99.90;;;;;;4177007;28;20173;-70
2022/08/30 05:15:44;;;;;;;1475.53;991.23;;;12.60;99.90;;;;;;4162392;28;20278;-70
2022/08/30 05:17:45;;;;;;;1075.63;874.23;;;12.70;99.90;;;;;;4162400;28;20180;-71
2022/08/30 05:19:45;;;;;;;1792.37;941.10;;;12.70;99.90;;;;;;4162584;28;20797;-70
2022/08/30 05:21:46;;;;;;;1999.90;956.23;;;12.80;99.90;;;;;;4162353;28;20185;-71
2022/08/30 05:23:48;;;;;;;1107.00;847.23;;;12.80;99.90;;;;;;4161757;28;20566;-70
2022/08/30 05:25:49;;;;;;;1453.67;950.10;;;12.80;99.90;;;;;;4162153;28;20205;-70
2022/08/30 05:27:51;;;;;;;1211.63;943.07;;;12.80;99.90;;;;;;4162156;28;20230;-70
2022/08/30 05:29:51;;;;;;;800.60;728.33;;;12.80;99.90;;;;;;4164755;28;20296;-70
2022/08/30 05:31:52;;;;;;;1271.90;928.43;;;12.90;99.90;;;;;;4162172;28;20208;-70
2022/08/30 05:33:54;;;;;;;1772.47;918.63;;;12.90;99.90;;;;;;4161666;28;20193;-70
2022/08/30 05:35:54;;;;;;;1297.20;773.70;;;13.00;99.90;;;;;;4162220;28;20205;-71
2022/08/30 05:37:55;;;;;;;1999.90;995.70;;;13.00;99.90;;;;;;4162227;28;20185;-70
2022/08/30 05:39:56;;;;;;;893.43;809.73;;;13.00;99.90;;;;;;4162288;28;20200;-71
2022/08/30 05:41:58;;;;;;;1255.23;912.77;;;13.10;99.90;;;;;;4161651;28;20208;-71
2022/08/30 05:44:00;;;;;;;1135.07;897.80;;;13.20;99.90;;;;;;4161720;28;20213;-70
2022/08/30 05:46:02;;;;;;;1999.90;986.60;;;13.30;99.90;;;;;;4162117;28;20228;-70
2022/08/30 05:48:03;;;;;;;1845.50;968.93;;;13.40;99.90;;;;;;4161920;28;20181;-70
2022/08/30 05:50:08;;;;;;;1999.90;999.90;;;13.40;99.90;;;;;;4162085;28;20181;-70
2022/08/30 05:52:08;;;;;;;1826.13;999.90;;;13.40;99.90;;;;;;4161868;28;20251;-71
2022/08/30 05:54:11;;;;;;;1999.90;998.77;;;13.50;99.90;;;;;;4161075;28;20667;-70
2022/08/30 05:56:16;;;;;;;1800.13;998.70;;;13.60;99.90;;;;;;4161813;28;20196;-70
2022/08/30 05:58:16;;;;;;;1970.27;999.90;;;13.70;99.90;;;;;;4161785;28;20203;-70
2022/08/30 06:00:18;;;;;;;1922.30;999.90;;;13.90;99.90;;;;;;4161712;28;20181;-70
2022/08/30 06:02:18;;;;;;;1885.10;996.27;;;13.90;99.90;;;;;;4161778;28;20994;-70
2022/08/30 06:04:19;;;;;;;1453.10;949.70;;;13.90;99.90;;;;;;4161071;28;20192;-70
2022/08/30 06:06:20;;;;;;;1927.70;967.80;;;14.00;99.90;;;;;;4161661;28;20212;-70
2022/08/30 06:08:21;;;;;;;1999.90;999.90;;;14.10;99.90;;;;;;4161541;28;20683;-71
2022/08/30 06:10:21;;;;;;;1999.90;999.90;;;14.10;99.90;;;;;;4161540;28;20196;-70
2022/08/30 06:12:22;;;;;;;1999.90;999.90;;;14.20;99.90;;;;;;4161769;28;20239;-71
2022/08/30 06:14:23;;;;;;;1999.90;999.90;;;14.20;99.90;;;;;;4161369;28;20181;-70
2022/08/30 06:16:26;;;;;;;1961.50;999.90;;;14.30;99.90;;;;;;4161811;28;20653;-69
2022/08/30 06:18:27;;;;;;;1999.90;999.90;;;14.40;99.90;;;;;;4162156;28;20185;-70
2022/08/30 06:20:28;;;;;;;1999.90;999.90;;;14.50;99.90;;;;;;4161902;28;20846;-70
2022/08/30 06:22:28;;;;;;;1999.90;999.90;;;14.50;99.90;;;;;;4161920;28;20181;-70
2022/08/30 06:24:29;;;;;;;1939.97;999.90;;;14.60;99.90;;;;;;4161254;28;20700;-70
2022/08/30 06:26:30;;;;;;;1999.90;999.90;;;14.80;99.90;;;;;;4162210;28;20833;-70
2022/08/30 06:28:31;;;;;;;1999.90;999.90;;;14.90;99.90;;;;;;4161830;28;20562;-70
2022/08/30 06:30:33;;;;;;;1999.90;999.90;;;14.90;99.90;;;;;;4161874;28;20185;-70
2022/08/30 06:32:34;;;;;;;1999.90;999.90;;;15.00;99.90;;;;;;4161695;28;20205;-70
2022/08/30 06:34:34;;;;;;;1999.90;651.00;;;15.00;99.90;;;;;;4166638;28;20607;-70
2022/08/30 06:36:35;;;;;;;1999.90;999.90;;;15.10;99.90;;;;;;4178080;28;20193;-69
2022/08/30 06:38:36;;;;;;;1999.90;999.90;;;15.20;99.90;;;;;;4178403;28;20231;-71
2022/08/30 06:40:37;;;;;;;1999.90;938.83;;;15.30;99.90;;;;;;4178395;28;20184;-70
2022/08/30 06:42:37;;;;;;;1999.90;999.90;;;15.30;99.90;;;;;;4178214;28;20180;-70
2022/08/30 06:44:38;;;;;;;1999.90;999.90;;;15.40;99.90;;;;;;4177784;28;20269;-69
2022/08/30 06:46:39;;;;;;;1999.90;962.00;;;15.50;99.90;;;;;;4178060;28;20176;-70
2022/08/30 06:48:40;;;;;;;1999.90;855.70;;;15.50;99.90;;;;;;4178369;28;20263;-70
2022/08/30 06:50:40;;;;;;;1999.90;999.90;;;15.60;99.90;;;;;;4178591;28;20184;-70
2022/08/30 06:52:44;;;;;;;1999.90;966.17;;;15.70;99.90;;;;;;4178586;28;20212;-70
2022/08/30 06:54:44;;;;;;;1999.90;944.47;;;15.70;99.90;;;;;;4181559;28;20676;-70
2022/08/30 06:56:45;;;;;;;1999.90;981.23;;;15.80;99.90;;;;;;4181709;28;20172;-70
2022/08/30 06:58:46;;;;;;;1999.90;973.73;;;15.90;99.90;;;;;;4181574;28;20173;-68
2022/08/30 07:00:47;;;;;;;1999.90;933.43;;;15.90;99.90;;;;;;4181639;28;20357;-68
2022/08/30 07:02:47;;;;;;;1999.90;999.90;;;15.90;99.90;;;;;;4180883;28;20188;-70
2022/08/30 07:04:48;;;;;;;1999.90;999.90;;;16.00;99.90;;;;;;4181219;28;20176;-69
2022/08/30 07:06:49;;;;;;;1999.90;914.40;;;16.00;99.90;;;;;;4181280;28;20191;-69
2022/08/30 07:08:51;;;;;;;1999.90;746.07;;;16.10;99.90;;;;;;4180899;28;20185;-70
2022/08/30 07:10:55;;;;;;;1999.90;755.07;;;16.10;99.90;;;;;;4181258;28;20226;-71
2022/08/30 07:12:55;;;;;;;1999.90;817.50;;;16.20;99.90;;;;;;4180799;28;20180;-70
2022/08/30 07:14:56;;;;;;;1999.90;999.90;;;16.40;99.90;;;;;;4180925;28;20207;-69
2022/08/30 07:16:56;;;;;;;1999.90;841.53;;;16.60;99.90;;;;;;4181068;28;20188;-69
2022/08/30 07:18:57;;;;;;;1999.90;650.37;;;16.60;99.90;;;;;;4180958;28;20567;-69
2022/08/30 07:21:09;;;;;;;1999.90;744.00;;;16.70;99.90;;;;;;4180995;28;20173;-69
2022/08/30 07:23:10;;;;;;;1999.90;861.03;;;17.00;99.90;;;;;;4180548;28;20223;-69
2022/08/30 07:25:11;;;;;;;1999.90;999.90;;;17.20;99.90;;;;;;4179561;28;20211;-70
2022/08/30 07:27:13;;;;;;;1999.90;849.83;;;17.30;99.90;;;;;;4181093;28;20196;-69
2022/08/30 07:29:14;;;;;;;1999.90;843.63;;;17.60;99.90;;;;;;4181173;28;20239;-70
2022/08/30 07:31:17;;;;;;;1999.90;894.83;;;18.00;99.50;;;;;;4180981;28;20200;-70
2022/08/30 07:33:17;;;;;;;1999.90;999.90;;;18.00;98.40;;;;;;4180591;28;20193;-70
2022/08/30 07:35:18;;;;;;;1999.90;964.77;;;18.20;98.30;;;;;;4170508;28;20255;-70
2022/08/30 07:37:18;;;;;;;1999.90;999.90;;;18.40;98.70;;;;;;4164646;28;20199;-70
2022/08/30 07:39:19;;;;;;;1999.90;914.53;;;18.50;98.00;;;;;;4164244;28;20188;-70
2022/08/30 07:41:33;;;;;;;1999.90;756.33;;;18.80;96.70;;;;;;4164122;28;20204;-70
2022/08/30 07:43:35;;;;;;;1999.90;999.90;;;19.10;96.10;;;;;;4162360;28;20192;-70
2022/08/30 07:45:37;;;;;;;1999.90;825.63;;;19.30;95.60;;;;;;4164465;28;20308;-70
2022/08/30 07:47:39;;;;;;;1999.90;881.30;;;19.40;96.10;;;;;;4146423;28;20645;-70
2022/08/30 07:49:40;;;;;;;1999.90;755.63;;;19.70;92.80;;;;;;4146541;28;20284;-70
2022/08/30 07:51:41;;;;;;;1999.90;999.90;;;19.90;92.90;;;;;;4147684;28;20233;-70
2022/08/30 07:53:41;;;;;;;1999.90;883.40;;;19.80;92.50;;;;;;4145602;28;20186;-70
2022/08/30 07:55:42;;;;;;;1999.90;867.67;;;20.10;91.40;;;;;;4147527;28;20668;-70
2022/08/30 07:57:43;;;;;;;1999.90;894.50;;;20.30;89.80;;;;;;4147537;28;20188;-70
2022/08/30 07:59:44;;;;;;;1999.90;855.83;;;20.40;87.60;;;;;;4147566;28;20938;-70
2022/08/30 08:01:44;;;;;;;1999.90;851.37;;;20.40;86.90;;;;;;4147586;28;20605;-70
2022/08/30 08:03:46;;;;;;;1999.90;857.00;;;20.50;86.10;;;;;;4146468;28;20174;-70
2022/08/30 08:05:47;;;;;;;1999.90;788.47;;;20.60;87.90;;;;;;4147478;28;20205;-70
2022/08/30 08:07:48;;;;;;;1999.90;999.90;;;20.70;86.60;;;;;;4146223;28;20184;-70
2022/08/30 08:09:49;;;;;;;1999.90;994.10;;;20.80;85.10;;;;;;4147505;28;20189;-69
2022/08/30 08:11:49;;;;;;;1999.90;999.90;;;20.90;86.90;;;;;;4147393;28;20213;-70
2022/08/30 08:13:51;;;;;;;1999.90;999.90;;;21.00;82.00;;;;;;4146723;28;20189;-70
2022/08/30 08:15:52;;;;;;;1999.90;909.30;;;21.10;80.50;;;;;;4146272;28;20351;-70
2022/08/30 08:17:53;;;;;;;1999.90;853.37;;;21.10;76.20;;;;;;4147102;28;20205;-69
2022/08/30 08:19:54;;;;;;;1999.90;978.77;;;21.30;76.00;;;;;;4147155;28;20182;-70
2022/08/30 08:21:57;;;;;;;1999.90;762.93;;;21.40;76.30;;;;;;4147210;28;20735;-70
2022/08/30 08:23:58;;;;;;;1999.90;748.80;;;21.60;73.30;;;;;;4146671;28;20232;-70
2022/08/30 08:25:59;;;;;;;1999.90;847.40;;;21.70;73.80;;;;;;4146762;28;20683;-70
2022/08/30 08:28:00;;;;;;;1999.90;826.10;;;21.70;71.10;;;;;;4146915;28;20567;-70
2022/08/30 08:30:01;;;;;;;1999.90;909.67;;;21.90;70.60;;;;;;4145467;28;20189;-70
2022/08/30 08:32:02;;;;;;;1999.90;752.53;;;22.10;70.10;;;;;;4145502;28;20209;-70
2022/08/30 08:34:04;;;;;;;1999.90;864.10;;;22.40;71.50;;;;;;4145021;28;20713;-70
2022/08/30 08:36:05;;;;;;;1999.90;856.37;;;22.50;67.30;;;;;;4145415;28;20193;-70
2022/08/30 08:38:06;;;;;;;1999.90;941.90;;;22.70;69.10;;;;;;4129252;28;20680;-70
2022/08/30 08:40:09;;;;;;;1999.90;825.50;;;22.80;67.90;;;;;;4146802;28;20181;-70
2022/08/30 08:42:31;;;;;;;1999.90;906.80;;;22.90;64.30;;;;;;4154709;28;20185;-70
2022/08/30 08:44:49;;;;;;;1999.90;863.87;;;23.00;63.20;;;;;;4161033;28;20185;-71
2022/08/30 08:47:10;;;;;;;1999.90;737.60;;;22.80;62.90;;;;;;4162960;28;20192;-70
2022/08/30 08:49:11;;;;;;;1999.90;941.10;;;23.00;61.30;;;;;;4162997;28;20269;-70
2022/08/30 08:53:35;;;;;;;1999.90;879.37;;;23.40;58.80;;;;;;4161315;28;20184;-70
2022/08/30 08:55:49;;;;;;;1999.90;944.27;;;23.10;60.60;;;;;;4163092;28;20201;-70
2022/08/30 08:57:51;;;;;;;1999.90;775.00;;;23.20;58.50;;;;;;4178134;28;20188;-70
2022/08/30 08:59:53;;;;;;;1999.90;822.73;;;23.40;59.70;;;;;;4145263;28;20186;-70
2022/08/30 09:01:59;;;;;;;1999.90;669.63;;;23.50;57.10;;;;;;4162996;28;20191;-70
2022/08/30 09:04:09;;;;;;;1999.90;691.87;;;23.70;53.90;;;;;;4177412;28;20188;-70
2022/08/30 09:06:53;;;;;;;1999.90;579.87;;;23.70;52.10;;;;;;4177862;28;20215;-70
2022/08/30 09:08:55;;;;;;;1999.90;684.27;;;23.90;55.40;;;;;;4162771;28;20240;-70
2022/08/30 09:11:05;;;;;;;1986.60;567.13;;;23.90;52.20;;;;;;4162886;28;20216;-70
2022/08/30 09:13:06;;;;;;;1999.90;746.13;;;24.10;51.80;;;;;;4161981;28;20637;-70
2022/08/30 09:15:17;;;;;;;1999.90;727.73;;;24.20;52.90;;;;;;4162444;28;20196;-70
2022/08/30 09:17:19;;;;;;;1999.90;640.27;;;24.50;53.10;;;;;;4162378;28;20544;-70
2022/08/30 09:19:40;;;;;;;1999.90;645.00;;;24.60;50.20;;;;;;4177768;28;20191;-70
2022/08/30 09:21:41;;;;;;;481.77;434.87;;;24.70;50.80;;;;;;4162457;28;20216;-70
2022/08/30 09:23:59;;;;;;;1826.50;627.00;;;25.00;47.20;;;;;;4176979;28;20203;-70
2022/08/30 09:26:05;;;;;;;1999.90;616.97;;;25.40;47.60;;;;;;4177848;28;20607;-70
2022/08/30 09:28:14;;;;;;;1999.90;997.90;;;25.60;47.10;;;;;;4179111;28;20595;-70
2022/08/30 09:30:24;;;;;;;1999.90;999.90;;;25.60;49.20;;;;;;4163757;28;20276;-69
2022/08/30 09:32:39;;;;;;;1999.90;746.53;;;25.30;48.00;;;;;;4165114;28;20551;-69
2022/08/30 09:34:42;;;;;;;1999.90;782.10;;;25.50;47.80;;;;;;4164607;28;20181;-69
2022/08/30 09:36:52;;;;;;;1999.90;838.57;;;25.30;47.20;;;;;;4165557;28;20181;-69
2022/08/30 09:39:00;;;;;;;1698.13;865.87;;;25.00;48.20;;;;;;4180686;28;20188;-69
2022/08/30 09:41:38;;;;;;;1999.90;745.33;;;25.50;46.90;;;;;;4180417;28;20285;-69
2022/08/30 09:43:39;;;;;;;1999.90;992.27;;;26.50;46.50;;;;;;4179531;28;20233;-70
2022/08/30 09:45:46;;;;;;;1999.90;880.60;;;27.00;44.70;;;;;;4165197;28;20205;-70
2022/08/30 09:47:46;;;;;;;1999.90;808.97;;;27.40;43.20;;;;;;4163927;28;20271;-69
2022/08/30 09:49:47;;;;;;;1999.90;883.13;;;27.30;42.70;;;;;;4180391;28;20184;-69
2022/08/30 09:52:20;;;;;;;1999.90;774.20;;;26.90;43.70;;;;;;4164941;28;20213;-70
2022/08/30 09:54:27;;;;;;;1999.90;999.90;;;26.70;44.80;;;;;;4164547;28;20300;-70
2022/08/30 09:56:55;;;;;;;1999.90;716.67;;;26.40;43.70;;;;;;4163625;28;20207;-70
2022/08/30 09:59:14;;;;;;;1999.90;766.37;;;26.60;41.70;;;;;;4163608;28;20177;-69
2022/08/30 10:01:23;;;;;;;1999.90;931.53;;;26.40;41.50;;;;;;4164909;28;20177;-69
2022/08/30 10:03:49;;;;;;;1999.90;775.07;;;26.00;44.00;;;;;;4162824;28;20263;-70